sensor_id;sensor_type;location;lat;lon;timestamp;temperature;humidity
11079;DHT22;5592;49.234;7.268;2022-07-22T00:02:00;15.10;99.90
11079;DHT22;5592;49.234;7.268;2022-07-22T00:04:26;15.10;99.90
11079;DHT22;5592;49.234;7.268;2022-07-22T00:06:52;15.10;99.90
11079;DHT22;5592;49.234;7.268;2022-07-22T00:09:17;15.00;99.90
11079;DHT22;5592;49.234;7.268;2022-07-22T00:11:43;15.00;99.90
11079;DHT22;5592;49.234;7.268;2022-07-22T00:14:09;15.00;99.90
11079;DHT22;5592;49.234;7.268;2022-07-22T00:16:34;14.90;99.90
11079;DHT22;5592;49.234;7.268;2022-07-22T00:19:00;14.90;99.90
11079;DHT22;5592;49.234;7.268;2022-07-22T00:21:26;15.00;99.90
11079;DHT22;5592;49.234;7.268;2022-07-22T00:23:51;15.00;99.90
11079;DHT22;5592;49.234;7.268;2022-07-22T00:26:17;15.00;99.90
11079;DHT22;5592;49.234;7.268;2022-07-22T00:28:43;15.00;99.90
11079;DHT22;5592;49.234;7.268;2022-07-22T00:31:09;14.90;99.90
11079;DHT22;5592;49.234;7.268;2022-07-22T00:33:34;14.90;99.90
11079;DHT22;5592;49.234;7.268;2022-07-22T00:36:00;14.90;99.90
11079;DHT22;5592;49.234;7.268;2022-07-22T00:38:26;14.90;99.90
11079;DHT22;5592;49.234;7.268;2022-07-22T00:40:51;14.80;99.90
11079;DHT22;5592;49.234;7.268;2022-07-22T00:43:17;14.80;99.90
11079;DHT22;5592;49.234;7.268;2022-07-22T00:45:42;14.70;99.90
11079;DHT22;5592;49.234;7.268;2022-07-22T00:48:08;14.70;99.90
11079;DHT22;5592;49.234;7.268;2022-07-22T00:50:34;14.60;99.90
11079;DHT22;5592;49.234;7.268;2022-07-22T00:53:00;14.60;99.90
11079;DHT22;5592;49.234;7.268;2022-07-22T00:55:27;14.60;99.90
11079;DHT22;5592;49.234;7.268;2022-07-22T00:57:53;14.60;99.90
11079;DHT22;5592;49.234;7.268;2022-07-22T01:00:20;14.50;99.90
11079;DHT22;5592;49.234;7.268;2022-07-22T01:02:46;14.50;99.90
11079;DHT22;5592;49.234;7.268;2022-07-22T01:05:12;14.60;99.90
11079;DHT22;5592;49.234;7.268;2022-07-22T01:07:38;14.50;99.90
11079;DHT22;5592;49.234;7.268;2022-07-22T01:10:05;14.60;99.90
11079;DHT22;5592;49.234;7.268;2022-07-22T01:12:31;14.50;99.90
11079;DHT22;5592;49.234;7.268;2022-07-22T01:14:57;14.50;99.90
11079;DHT22;5592;49.234;7.268;2022-07-22T01:17:23;14.50;99.90
11079;DHT22;5592;49.234;7.268;2022-07-22T01:19:50;14.40;99.90
11079;DHT22;5592;49.234;7.268;2022-07-22T01:22:15;14.40;99.90
11079;DHT22;5592;49.234;7.268;2022-07-22T01:24:42;14.30;99.90
11079;DHT22;5592;49.234;7.268;2022-07-22T01:27:07;14.30;99.90
11079;DHT22;5592;49.234;7.268;2022-07-22T01:29:33;14.20;99.90
11079;DHT22;5592;49.234;7.268;2022-07-22T01:31:59;14.20;99.90
11079;DHT22;5592;49.234;7.268;2022-07-22T01:34:25;14.30;99.90
11079;DHT22;5592;49.234;7.268;2022-07-22T01:36:51;14.30;99.90
11079;DHT22;5592;49.234;7.268;2022-07-22T01:39:16;14.20;99.90
11079;DHT22;5592;49.234;7.268;2022-07-22T01:41:43;14.20;99.90
11079;DHT22;5592;49.234;7.268;2022-07-22T01:44:09;14.20;99.90
11079;DHT22;5592;49.234;7.268;2022-07-22T01:46:34;14.20;99.90
11079;DHT22;5592;49.234;7.268;2022-07-22T01:49:00;14.20;99.90
11079;DHT22;5592;49.234;7.268;2022-07-22T01:51:29;14.10;99.90
11079;DHT22;5592;49.234;7.268;2022-07-22T01:53:54;14.00;99.90
11079;DHT22;5592;49.234;7.268;2022-07-22T01:56:20;14.00;99.90
11079;DHT22;5592;49.234;7.268;2022-07-22T01:58:47;14.00;99.90
11079;DHT22;5592;49.234;7.268;2022-07-22T02:01:12;14.00;99.90
11079;DHT22;5592;49.234;7.268;2022-07-22T02:03:38;13.90;99.90
11079;DHT22;5592;49.234;7.268;2022-07-22T02:06:04;13.90;99.90
11079;DHT22;5592;49.234;7.268;2022-07-22T02:08:30;14.00;99.90
11079;DHT22;5592;49.234;7.268;2022-07-22T02:10:55;14.00;99.90
11079;DHT22;5592;49.234;7.268;2022-07-22T02:13:21;14.10;99.90
11079;DHT22;5592;49.234;7.268;2022-07-22T02:15:47;14.10;99.90
11079;DHT22;5592;49.234;7.268;2022-07-22T02:18:14;14.10;99.90
11079;DHT22;5592;49.234;7.268;2022-07-22T02:20:41;14.00;99.90
11079;DHT22;5592;49.234;7.268;2022-07-22T02:23:07;14.00;99.90
11079;DHT22;5592;49.234;7.268;2022-07-22T02:25:33;14.00;99.90
11079;DHT22;5592;49.234;7.268;2022-07-22T02:27:59;14.00;99.90
11079;DHT22;5592;49.234;7.268;2022-07-22T02:30:25;14.00;99.90
11079;DHT22;5592;49.234;7.268;2022-07-22T02:32:51;14.00;99.90
11079;DHT22;5592;49.234;7.268;2022-07-22T02:35:16;13.90;99.90
11079;DHT22;5592;49.234;7.268;2022-07-22T02:37:42;13.80;99.90
11079;DHT22;5592;49.234;7.268;2022-07-22T02:40:08;13.70;99.90
11079;DHT22;5592;49.234;7.268;2022-07-22T02:42:34;13.70;99.90
11079;DHT22;5592;49.234;7.268;2022-07-22T02:45:00;13.70;99.90
11079;DHT22;5592;49.234;7.268;2022-07-22T02:47:26;13.70;99.90
11079;DHT22;5592;49.234;7.268;2022-07-22T02:49:51;13.60;99.90
11079;DHT22;5592;49.234;7.268;2022-07-22T02:52:17;13.60;99.90
11079;DHT22;5592;49.234;7.268;2022-07-22T02:54:43;13.70;99.90
11079;DHT22;5592;49.234;7.268;2022-07-22T02:57:08;13.70;99.90
11079;DHT22;5592;49.234;7.268;2022-07-22T02:59:34;13.80;99.90
11079;DHT22;5592;49.234;7.268;2022-07-22T03:02:03;13.80;99.90
11079;DHT22;5592;49.234;7.268;2022-07-22T03:04:29;13.70;99.90
11079;DHT22;5592;49.234;7.268;2022-07-22T03:06:54;13.70;99.90
11079;DHT22;5592;49.234;7.268;2022-07-22T03:09:20;13.70;99.90
11079;DHT22;5592;49.234;7.268;2022-07-22T03:11:46;13.80;99.90
11079;DHT22;5592;49.234;7.268;2022-07-22T03:14:12;13.90;99.90
11079;DHT22;5592;49.234;7.268;2022-07-22T03:16:38;13.80;99.90
11079;DHT22;5592;49.234;7.268;2022-07-22T03:19:03;13.70;99.90
11079;DHT22;5592;49.234;7.268;2022-07-22T03:21:29;13.70;99.90
11079;DHT22;5592;49.234;7.268;2022-07-22T03:23:55;13.70;99.90
11079;DHT22;5592;49.234;7.268;2022-07-22T03:26:21;13.60;99.90
11079;DHT22;5592;49.234;7.268;2022-07-22T03:28:47;13.60;99.90
11079;DHT22;5592;49.234;7.268;2022-07-22T03:31:13;13.60;99.90
11079;DHT22;5592;49.234;7.268;2022-07-22T03:33:39;13.50;99.90
11079;DHT22;5592;49.234;7.268;2022-07-22T03:36:05;13.40;99.90
11079;DHT22;5592;49.234;7.268;2022-07-22T03:38:36;13.40;99.90
11079;DHT22;5592;49.234;7.268;2022-07-22T03:41:03;13.50;99.90
11079;DHT22;5592;49.234;7.268;2022-07-22T03:43:29;13.50;99.90
11079;DHT22;5592;49.234;7.268;2022-07-22T03:45:54;13.40;99.90
11079;DHT22;5592;49.234;7.268;2022-07-22T03:48:20;13.40;99.90
11079;DHT22;5592;49.234;7.268;2022-07-22T03:50:46;13.30;99.90
11079;DHT22;5592;49.234;7.268;2022-07-22T03:53:11;13.30;99.90
11079;DHT22;5592;49.234;7.268;2022-07-22T03:55:37;13.30;99.90
11079;DHT22;5592;49.234;7.268;2022-07-22T03:58:03;13.30;99.90
11079;DHT22;5592;49.234;7.268;2022-07-22T04:00:29;13.30;99.90
11079;DHT22;5592;49.234;7.268;2022-07-22T04:02:57;13.30;99.90
11079;DHT22;5592;49.234;7.268;2022-07-22T04:05:22;13.30;99.90
11079;DHT22;5592;49.234;7.268;2022-07-22T04:07:48;13.40;99.90
11079;DHT22;5592;49.234;7.268;2022-07-22T04:10:14;13.40;99.90
11079;DHT22;5592;49.234;7.268;2022-07-22T04:12:40;13.40;99.90
11079;DHT22;5592;49.234;7.268;2022-07-22T04:15:07;13.50;99.90
11079;DHT22;5592;49.234;7.268;2022-07-22T04:17:36;13.50;99.90
11079;DHT22;5592;49.234;7.268;2022-07-22T04:20:01;13.50;99.90
11079;DHT22;5592;49.234;7.268;2022-07-22T04:22:28;13.60;99.90
11079;DHT22;5592;49.234;7.268;2022-07-22T04:24:53;13.60;99.90
11079;DHT22;5592;49.234;7.268;2022-07-22T04:27:19;13.70;99.90
11079;DHT22;5592;49.234;7.268;2022-07-22T04:29:45;13.80;99.90
11079;DHT22;5592;49.234;7.268;2022-07-22T04:32:11;13.90;99.90
11079;DHT22;5592;49.234;7.268;2022-07-22T04:34:37;14.00;99.90
11079;DHT22;5592;49.234;7.268;2022-07-22T04:37:02;14.00;99.90
11079;DHT22;5592;49.234;7.268;2022-07-22T04:39:28;14.10;99.90
11079;DHT22;5592;49.234;7.268;2022-07-22T04:41:54;14.30;99.90
11079;DHT22;5592;49.234;7.268;2022-07-22T04:44:19;14.30;99.90
11079;DHT22;5592;49.234;7.268;2022-07-22T04:46:45;14.40;99.90
11079;DHT22;5592;49.234;7.268;2022-07-22T04:49:10;14.50;99.90
11079;DHT22;5592;49.234;7.268;2022-07-22T04:51:36;14.60;99.90
11079;DHT22;5592;49.234;7.268;2022-07-22T04:54:02;14.70;99.90
11079;DHT22;5592;49.234;7.268;2022-07-22T04:56:27;14.70;99.90
11079;DHT22;5592;49.234;7.268;2022-07-22T04:58:53;14.90;99.90
11079;DHT22;5592;49.234;7.268;2022-07-22T05:01:19;15.00;99.90
11079;DHT22;5592;49.234;7.268;2022-07-22T05:03:44;15.40;99.90
11079;DHT22;5592;49.234;7.268;2022-07-22T05:06:13;15.60;99.90
11079;DHT22;5592;49.234;7.268;2022-07-22T05:08:38;15.80;99.90
11079;DHT22;5592;49.234;7.268;2022-07-22T05:11:04;16.10;99.90
11079;DHT22;5592;49.234;7.268;2022-07-22T05:13:30;16.50;99.90
11079;DHT22;5592;49.234;7.268;2022-07-22T05:15:55;17.10;99.90
11079;DHT22;5592;49.234;7.268;2022-07-22T05:18:21;17.80;99.90
11079;DHT22;5592;49.234;7.268;2022-07-22T05:20:48;18.70;99.90
11079;DHT22;5592;49.234;7.268;2022-07-22T05:23:14;19.60;99.90
11079;DHT22;5592;49.234;7.268;2022-07-22T05:25:39;20.60;99.90
11079;DHT22;5592;49.234;7.268;2022-07-22T05:28:05;21.60;99.90
11079;DHT22;5592;49.234;7.268;2022-07-22T05:30:31;22.70;99.90
11079;DHT22;5592;49.234;7.268;2022-07-22T05:32:56;23.90;99.90
11079;DHT22;5592;49.234;7.268;2022-07-22T05:35:22;24.70;99.90
11079;DHT22;5592;49.234;7.268;2022-07-22T05:37:48;25.80;99.90
11079;DHT22;5592;49.234;7.268;2022-07-22T05:40:13;26.50;99.90
11079;DHT22;5592;49.234;7.268;2022-07-22T05:42:39;27.10;99.90
11079;DHT22;5592;49.234;7.268;2022-07-22T05:45:06;27.20;99.90
11079;DHT22;5592;49.234;7.268;2022-07-22T05:47:32;27.70;99.90
11079;DHT22;5592;49.234;7.268;2022-07-22T05:49:57;28.10;99.90
11079;DHT22;5592;49.234;7.268;2022-07-22T05:52:23;28.20;99.90
11079;DHT22;5592;49.234;7.268;2022-07-22T05:54:49;28.70;99.90
11079;DHT22;5592;49.234;7.268;2022-07-22T05:57:14;29.40;99.90
11079;DHT22;5592;49.234;7.268;2022-07-22T05:59:40;29.70;99.90
11079;DHT22;5592;49.234;7.268;2022-07-22T06:02:07;29.90;99.90
11079;DHT22;5592;49.234;7.268;2022-07-22T06:04:33;30.30;99.90
11079;DHT22;5592;49.234;7.268;2022-07-22T06:06:59;30.70;99.90
11079;DHT22;5592;49.234;7.268;2022-07-22T06:09:25;30.80;99.90
11079;DHT22;5592;49.234;7.268;2022-07-22T06:11:51;31.20;99.90
11079;DHT22;5592;49.234;7.268;2022-07-22T06:14:17;31.10;99.90
11079;DHT22;5592;49.234;7.268;2022-07-22T06:16:42;31.40;99.90
11079;DHT22;5592;49.234;7.268;2022-07-22T06:19:08;31.60;99.90
11079;DHT22;5592;49.234;7.268;2022-07-22T06:21:33;31.80;99.90
11079;DHT22;5592;49.234;7.268;2022-07-22T06:23:59;32.00;99.90
11079;DHT22;5592;49.234;7.268;2022-07-22T06:26:25;32.40;99.90
11079;DHT22;5592;49.234;7.268;2022-07-22T06:28:50;32.20;99.90
11079;DHT22;5592;49.234;7.268;2022-07-22T06:31:19;32.40;99.90
11079;DHT22;5592;49.234;7.268;2022-07-22T06:33:44;32.90;99.90
11079;DHT22;5592;49.234;7.268;2022-07-22T06:36:10;33.70;98.40
11079;DHT22;5592;49.234;7.268;2022-07-22T06:38:36;33.90;97.20
11079;DHT22;5592;49.234;7.268;2022-07-22T06:41:02;34.30;95.50
11079;DHT22;5592;49.234;7.268;2022-07-22T06:43:28;34.30;95.00
11079;DHT22;5592;49.234;7.268;2022-07-22T06:45:54;34.10;95.20
11079;DHT22;5592;49.234;7.268;2022-07-22T06:48:20;34.60;93.30
11079;DHT22;5592;49.234;7.268;2022-07-22T06:50:46;34.80;92.50
11079;DHT22;5592;49.234;7.268;2022-07-22T06:53:11;34.30;92.40
11079;DHT22;5592;49.234;7.268;2022-07-22T06:55:37;34.20;92.40
11079;DHT22;5592;49.234;7.268;2022-07-22T06:58:03;34.30;92.00
11079;DHT22;5592;49.234;7.268;2022-07-22T07:00:28;34.60;91.50
11079;DHT22;5592;49.234;7.268;2022-07-22T07:02:58;35.00;90.90
11079;DHT22;5592;49.234;7.268;2022-07-22T07:05:25;35.10;90.10
11079;DHT22;5592;49.234;7.268;2022-07-22T07:08:16;35.40;89.60
11079;DHT22;5592;49.234;7.268;2022-07-22T07:10:45;36.00;87.90
11079;DHT22;5592;49.234;7.268;2022-07-22T07:13:12;35.90;85.70
11079;DHT22;5592;49.234;7.268;2022-07-22T07:15:49;36.00;85.70
11079;DHT22;5592;49.234;7.268;2022-07-22T07:18:15;35.70;85.50
11079;DHT22;5592;49.234;7.268;2022-07-22T07:20:41;35.90;84.30
11079;DHT22;5592;49.234;7.268;2022-07-22T07:23:06;35.70;85.30
11079;DHT22;5592;49.234;7.268;2022-07-22T07:25:32;35.90;84.20
11079;DHT22;5592;49.234;7.268;2022-07-22T07:27:58;36.20;84.40
11079;DHT22;5592;49.234;7.268;2022-07-22T07:30:23;36.50;81.20
11079;DHT22;5592;49.234;7.268;2022-07-22T07:32:49;37.00;80.20
11079;DHT22;5592;49.234;7.268;2022-07-22T07:35:15;37.10;78.90
11079;DHT22;5592;49.234;7.268;2022-07-22T07:37:42;37.00;78.90
11079;DHT22;5592;49.234;7.268;2022-07-22T07:40:09;37.50;76.50
11079;DHT22;5592;49.234;7.268;2022-07-22T07:42:35;37.70;75.50
11079;DHT22;5592;49.234;7.268;2022-07-22T07:45:00;37.90;74.60
11079;DHT22;5592;49.234;7.268;2022-07-22T07:47:26;37.80;75.40
11079;DHT22;5592;49.234;7.268;2022-07-22T07:49:52;37.90;72.70
11079;DHT22;5592;49.234;7.268;2022-07-22T07:52:18;37.60;73.60
11079;DHT22;5592;49.234;7.268;2022-07-22T07:54:45;37.50;72.60
11079;DHT22;5592;49.234;7.268;2022-07-22T07:57:11;37.90;72.00
11079;DHT22;5592;49.234;7.268;2022-07-22T07:59:40;38.10;70.00
11079;DHT22;5592;49.234;7.268;2022-07-22T08:02:07;38.40;70.90
11079;DHT22;5592;49.234;7.268;2022-07-22T08:04:36;39.00;70.20
11079;DHT22;5592;49.234;7.268;2022-07-22T08:07:02;38.80;69.70
11079;DHT22;5592;49.234;7.268;2022-07-22T08:09:28;38.30;68.80
11079;DHT22;5592;49.234;7.268;2022-07-22T08:11:54;38.60;70.20
11079;DHT22;5592;49.234;7.268;2022-07-22T08:14:20;38.00;68.20
11079;DHT22;5592;49.234;7.268;2022-07-22T08:16:45;38.20;69.00
11079;DHT22;5592;49.234;7.268;2022-07-22T08:19:11;39.10;67.90
11079;DHT22;5592;49.234;7.268;2022-07-22T08:21:37;39.30;66.60
11079;DHT22;5592;49.234;7.268;2022-07-22T08:24:02;39.10;66.40
11079;DHT22;5592;49.234;7.268;2022-07-22T08:26:28;39.30;64.50
11079;DHT22;5592;49.234;7.268;2022-07-22T08:28:54;39.20;64.50
11079;DHT22;5592;49.234;7.268;2022-07-22T08:31:20;39.10;64.10
11079;DHT22;5592;49.234;7.268;2022-07-22T08:33:45;39.00;64.30
11079;DHT22;5592;49.234;7.268;2022-07-22T08:36:11;38.90;64.90
11079;DHT22;5592;49.234;7.268;2022-07-22T08:38:36;39.20;65.10
11079;DHT22;5592;49.234;7.268;2022-07-22T08:41:03;39.60;65.00
11079;DHT22;5592;49.234;7.268;2022-07-22T08:43:30;39.90;62.60
11079;DHT22;5592;49.234;7.268;2022-07-22T08:45:57;39.60;63.40
11079;DHT22;5592;49.234;7.268;2022-07-22T08:48:23;40.20;64.10
11079;DHT22;5592;49.234;7.268;2022-07-22T08:50:49;39.90;60.80
11079;DHT22;5592;49.234;7.268;2022-07-22T08:53:15;39.80;61.60
11079;DHT22;5592;49.234;7.268;2022-07-22T08:55:45;39.30;62.50
11079;DHT22;5592;49.234;7.268;2022-07-22T08:58:11;39.30;61.30
11079;DHT22;5592;49.234;7.268;2022-07-22T09:00:38;39.10;61.00
11079;DHT22;5592;49.234;7.268;2022-07-22T09:03:24;39.40;60.30
11079;DHT22;5592;49.234;7.268;2022-07-22T09:05:53;38.60;61.90
11079;DHT22;5592;49.234;7.268;2022-07-22T09:08:21;39.00;62.80
11079;DHT22;5592;49.234;7.268;2022-07-22T09:10:49;39.30;61.00
11079;DHT22;5592;49.234;7.268;2022-07-22T09:13:16;39.00;61.60
11079;DHT22;5592;49.234;7.268;2022-07-22T09:15:51;38.80;62.70
11079;DHT22;5592;49.234;7.268;2022-07-22T09:18:17;38.70;62.00
11079;DHT22;5592;49.234;7.268;2022-07-22T09:20:43;39.30;60.30
11079;DHT22;5592;49.234;7.268;2022-07-22T09:23:19;39.50;59.70
11079;DHT22;5592;49.234;7.268;2022-07-22T09:25:48;38.60;63.10
11079;DHT22;5592;49.234;7.268;2022-07-22T09:28:19;38.70;61.50
11079;DHT22;5592;49.234;7.268;2022-07-22T09:30:49;39.00;62.80
11079;DHT22;5592;49.234;7.268;2022-07-22T09:33:16;39.40;62.20
11079;DHT22;5592;49.234;7.268;2022-07-22T09:35:42;39.50;59.20
11079;DHT22;5592;49.234;7.268;2022-07-22T09:38:11;39.30;60.40
11079;DHT22;5592;49.234;7.268;2022-07-22T09:40:41;39.50;60.10
11079;DHT22;5592;49.234;7.268;2022-07-22T09:43:08;39.40;60.90
11079;DHT22;5592;49.234;7.268;2022-07-22T09:45:53;39.20;60.30
11079;DHT22;5592;49.234;7.268;2022-07-22T09:48:25;39.20;60.50
11079;DHT22;5592;49.234;7.268;2022-07-22T09:50:52;39.40;58.60
11079;DHT22;5592;49.234;7.268;2022-07-22T09:53:21;39.20;59.70
11079;DHT22;5592;49.234;7.268;2022-07-22T09:55:48;38.60;58.90
11079;DHT22;5592;49.234;7.268;2022-07-22T09:58:15;38.30;59.60
11079;DHT22;5592;49.234;7.268;2022-07-22T10:00:43;38.80;59.90
11079;DHT22;5592;49.234;7.268;2022-07-22T10:03:17;38.90;58.90
11079;DHT22;5592;49.234;7.268;2022-07-22T10:05:43;38.60;59.90
11079;DHT22;5592;49.234;7.268;2022-07-22T10:08:10;39.10;58.70
11079;DHT22;5592;49.234;7.268;2022-07-22T10:10:37;38.60;60.10
11079;DHT22;5592;49.234;7.268;2022-07-22T10:13:05;38.20;60.90
11079;DHT22;5592;49.234;7.268;2022-07-22T10:15:32;38.50;59.80
11079;DHT22;5592;49.234;7.268;2022-07-22T10:18:00;38.90;58.80
11079;DHT22;5592;49.234;7.268;2022-07-22T10:20:28;38.90;60.20
11079;DHT22;5592;49.234;7.268;2022-07-22T10:23:08;39.10;59.50
11079;DHT22;5592;49.234;7.268;2022-07-22T10:25:53;39.30;58.70
11079;DHT22;5592;49.234;7.268;2022-07-22T10:28:35;39.20;58.60
11079;DHT22;5592;49.234;7.268;2022-07-22T10:33:44;38.70;59.00
11079;DHT22;5592;49.234;7.268;2022-07-22T10:36:10;38.00;61.20
11079;DHT22;5592;49.234;7.268;2022-07-22T10:38:36;37.90;61.50
11079;DHT22;5592;49.234;7.268;2022-07-22T10:41:04;38.20;60.60
11079;DHT22;5592;49.234;7.268;2022-07-22T10:46:09;37.40;61.30
11079;DHT22;5592;49.234;7.268;2022-07-22T10:58:47;37.20;60.50
11079;DHT22;5592;49.234;7.268;2022-07-22T11:01:16;36.90;61.00
11079;DHT22;5592;49.234;7.268;2022-07-22T11:03:44;36.70;62.10
11079;DHT22;5592;49.234;7.268;2022-07-22T11:08:40;35.60;63.00
11079;DHT22;5592;49.234;7.268;2022-07-22T11:11:06;35.60;62.90
11079;DHT22;5592;49.234;7.268;2022-07-22T11:13:33;35.10;63.40
11079;DHT22;5592;49.234;7.268;2022-07-22T11:16:25;35.00;65.50
11079;DHT22;5592;49.234;7.268;2022-07-22T11:18:53;35.00;63.90
11079;DHT22;5592;49.234;7.268;2022-07-22T11:21:21;35.10;64.00
11079;DHT22;5592;49.234;7.268;2022-07-22T11:23:49;35.20;64.00
11079;DHT22;5592;49.234;7.268;2022-07-22T11:26:17;35.30;63.50
11079;DHT22;5592;49.234;7.268;2022-07-22T11:28:44;34.70;67.20
11079;DHT22;5592;49.234;7.268;2022-07-22T11:31:14;35.00;66.90
11079;DHT22;5592;49.234;7.268;2022-07-22T11:33:40;34.80;65.20
11079;DHT22;5592;49.234;7.268;2022-07-22T11:36:08;34.50;66.70
11079;DHT22;5592;49.234;7.268;2022-07-22T11:38:46;34.50;69.10
11079;DHT22;5592;49.234;7.268;2022-07-22T11:41:14;34.60;67.30
11079;DHT22;5592;49.234;7.268;2022-07-22T11:43:42;34.60;65.00
11079;DHT22;5592;49.234;7.268;2022-07-22T11:46:08;34.50;67.50
11079;DHT22;5592;49.234;7.268;2022-07-22T11:48:34;34.30;68.10
11079;DHT22;5592;49.234;7.268;2022-07-22T11:51:05;34.50;67.10
11079;DHT22;5592;49.234;7.268;2022-07-22T11:53:31;34.40;67.50
11079;DHT22;5592;49.234;7.268;2022-07-22T11:55:59;34.50;67.80
11079;DHT22;5592;49.234;7.268;2022-07-22T11:58:45;34.70;69.50
11079;DHT22;5592;49.234;7.268;2022-07-22T12:01:13;35.20;66.50
11079;DHT22;5592;49.234;7.268;2022-07-22T12:03:41;35.40;65.50
11079;DHT22;5592;49.234;7.268;2022-07-22T12:06:11;35.40;66.50
11079;DHT22;5592;49.234;7.268;2022-07-22T12:08:51;35.40;67.20
11079;DHT22;5592;49.234;7.268;2022-07-22T12:11:18;35.20;65.80
11079;DHT22;5592;49.234;7.268;2022-07-22T12:13:48;34.30;65.20
11079;DHT22;5592;49.234;7.268;2022-07-22T12:16:30;33.80;66.50
11079;DHT22;5592;49.234;7.268;2022-07-22T12:19:08;33.70;67.80
11079;DHT22;5592;49.234;7.268;2022-07-22T12:21:36;33.60;66.80
11079;DHT22;5592;49.234;7.268;2022-07-22T12:24:06;33.30;67.50
11079;DHT22;5592;49.234;7.268;2022-07-22T12:26:43;33.20;67.60
11079;DHT22;5592;49.234;7.268;2022-07-22T12:31:57;33.00;69.10
11079;DHT22;5592;49.234;7.268;2022-07-22T12:34:42;33.20;68.70
11079;DHT22;5592;49.234;7.268;2022-07-22T12:37:17;33.40;68.30
11079;DHT22;5592;49.234;7.268;2022-07-22T12:42:41;33.40;69.60
11079;DHT22;5592;49.234;7.268;2022-07-22T12:52:44;33.40;67.80
11079;DHT22;5592;49.234;7.268;2022-07-22T12:55:10;33.30;68.90
11079;DHT22;5592;49.234;7.268;2022-07-22T12:57:35;33.40;68.20
11079;DHT22;5592;49.234;7.268;2022-07-22T13:00:02;33.30;68.40
11079;DHT22;5592;49.234;7.268;2022-07-22T13:02:27;33.40;68.30
11079;DHT22;5592;49.234;7.268;2022-07-22T13:04:53;33.20;69.10
11079;DHT22;5592;49.234;7.268;2022-07-22T13:07:18;33.10;70.00
11079;DHT22;5592;49.234;7.268;2022-07-22T13:09:44;33.20;69.60
11079;DHT22;5592;49.234;7.268;2022-07-22T13:12:10;33.10;68.60
11079;DHT22;5592;49.234;7.268;2022-07-22T13:14:35;33.30;68.50
11079;DHT22;5592;49.234;7.268;2022-07-22T13:17:01;33.60;67.70
11079;DHT22;5592;49.234;7.268;2022-07-22T13:19:28;33.50;68.60
11079;DHT22;5592;49.234;7.268;2022-07-22T13:21:54;33.30;66.50
11079;DHT22;5592;49.234;7.268;2022-07-22T13:24:19;33.30;68.30
11079;DHT22;5592;49.234;7.268;2022-07-22T13:26:45;33.30;66.50
11079;DHT22;5592;49.234;7.268;2022-07-22T13:29:11;33.30;67.90
11079;DHT22;5592;49.234;7.268;2022-07-22T13:31:37;33.40;67.50
11079;DHT22;5592;49.234;7.268;2022-07-22T13:34:03;33.70;67.10
11079;DHT22;5592;49.234;7.268;2022-07-22T13:36:29;33.70;67.60
11079;DHT22;5592;49.234;7.268;2022-07-22T13:38:58;33.50;67.60
11079;DHT22;5592;49.234;7.268;2022-07-22T13:41:24;33.20;65.80
11079;DHT22;5592;49.234;7.268;2022-07-22T13:43:49;32.70;66.50
11079;DHT22;5592;49.234;7.268;2022-07-22T13:46:16;32.50;66.60
11079;DHT22;5592;49.234;7.268;2022-07-22T13:48:42;32.50;66.20
11079;DHT22;5592;49.234;7.268;2022-07-22T13:51:08;32.30;66.30
11079;DHT22;5592;49.234;7.268;2022-07-22T13:53:34;32.10;68.00
11079;DHT22;5592;49.234;7.268;2022-07-22T13:56:00;32.10;67.80
11079;DHT22;5592;49.234;7.268;2022-07-22T13:58:26;32.10;67.10
11079;DHT22;5592;49.234;7.268;2022-07-22T14:00:52;32.30;68.30
11079;DHT22;5592;49.234;7.268;2022-07-22T14:03:18;32.50;67.30
11079;DHT22;5592;49.234;7.268;2022-07-22T14:05:44;32.60;66.30
11079;DHT22;5592;49.234;7.268;2022-07-22T14:08:10;32.30;67.50
11079;DHT22;5592;49.234;7.268;2022-07-22T14:10:36;32.40;67.70
11079;DHT22;5592;49.234;7.268;2022-07-22T14:13:01;32.50;66.90
11079;DHT22;5592;49.234;7.268;2022-07-22T14:15:27;32.50;67.70
11079;DHT22;5592;49.234;7.268;2022-07-22T14:17:53;32.70;67.80
11079;DHT22;5592;49.234;7.268;2022-07-22T14:20:18;32.70;66.90
11079;DHT22;5592;49.234;7.268;2022-07-22T14:22:44;32.70;67.40
11079;DHT22;5592;49.234;7.268;2022-07-22T14:25:09;32.80;66.50
11079;DHT22;5592;49.234;7.268;2022-07-22T14:27:35;32.90;67.10
11079;DHT22;5592;49.234;7.268;2022-07-22T14:30:01;33.00;67.00
11079;DHT22;5592;49.234;7.268;2022-07-22T14:32:27;33.00;65.60
11079;DHT22;5592;49.234;7.268;2022-07-22T14:34:52;32.80;66.20
11079;DHT22;5592;49.234;7.268;2022-07-22T14:37:18;32.80;67.20
11079;DHT22;5592;49.234;7.268;2022-07-22T14:39:44;32.70;67.60
11079;DHT22;5592;49.234;7.268;2022-07-22T14:42:09;32.70;68.90
11079;DHT22;5592;49.234;7.268;2022-07-22T14:44:35;32.80;66.90
11079;DHT22;5592;49.234;7.268;2022-07-22T14:47:01;32.80;66.20
11079;DHT22;5592;49.234;7.268;2022-07-22T14:49:27;32.60;68.00
11079;DHT22;5592;49.234;7.268;2022-07-22T14:51:53;32.50;67.90
11079;DHT22;5592;49.234;7.268;2022-07-22T14:54:18;32.50;67.70
11079;DHT22;5592;49.234;7.268;2022-07-22T14:56:44;32.30;68.80
11079;DHT22;5592;49.234;7.268;2022-07-22T14:59:10;32.20;66.90
11079;DHT22;5592;49.234;7.268;2022-07-22T15:01:36;32.10;68.30
11079;DHT22;5592;49.234;7.268;2022-07-22T15:04:02;32.00;68.90
11079;DHT22;5592;49.234;7.268;2022-07-22T15:06:27;32.10;69.60
11079;DHT22;5592;49.234;7.268;2022-07-22T15:08:53;32.10;67.90
11079;DHT22;5592;49.234;7.268;2022-07-22T15:11:18;31.90;66.70
11079;DHT22;5592;49.234;7.268;2022-07-22T15:13:44;31.80;67.50
11079;DHT22;5592;49.234;7.268;2022-07-22T15:16:10;31.80;68.60
11079;DHT22;5592;49.234;7.268;2022-07-22T15:18:37;31.70;68.00
11079;DHT22;5592;49.234;7.268;2022-07-22T15:21:03;31.60;68.30
11079;DHT22;5592;49.234;7.268;2022-07-22T15:23:28;31.50;68.50
11079;DHT22;5592;49.234;7.268;2022-07-22T15:26:00;31.40;67.90
11079;DHT22;5592;49.234;7.268;2022-07-22T15:28:27;31.20;69.80
11079;DHT22;5592;49.234;7.268;2022-07-22T15:30:56;31.10;71.00
11079;DHT22;5592;49.234;7.268;2022-07-22T15:33:22;31.10;70.60
11079;DHT22;5592;49.234;7.268;2022-07-22T15:35:47;31.00;70.50
11079;DHT22;5592;49.234;7.268;2022-07-22T15:38:13;31.20;71.30
11079;DHT22;5592;49.234;7.268;2022-07-22T15:40:38;31.20;68.90
11079;DHT22;5592;49.234;7.268;2022-07-22T15:43:08;31.30;70.40
11079;DHT22;5592;49.234;7.268;2022-07-22T15:45:33;31.30;70.00
11079;DHT22;5592;49.234;7.268;2022-07-22T15:48:00;31.20;70.50
11079;DHT22;5592;49.234;7.268;2022-07-22T15:50:26;31.30;69.40
11079;DHT22;5592;49.234;7.268;2022-07-22T15:52:52;31.30;69.70
11079;DHT22;5592;49.234;7.268;2022-07-22T15:55:18;31.20;69.30
11079;DHT22;5592;49.234;7.268;2022-07-22T15:57:44;31.20;69.30
11079;DHT22;5592;49.234;7.268;2022-07-22T16:00:30;31.30;67.90
11079;DHT22;5592;49.234;7.268;2022-07-22T16:02:55;31.30;67.50
11079;DHT22;5592;49.234;7.268;2022-07-22T16:05:21;31.20;66.40
11079;DHT22;5592;49.234;7.268;2022-07-22T16:07:47;31.10;69.20
11079;DHT22;5592;49.234;7.268;2022-07-22T16:10:13;31.00;68.60
11079;DHT22;5592;49.234;7.268;2022-07-22T16:12:39;30.90;68.30
11079;DHT22;5592;49.234;7.268;2022-07-22T16:15:05;30.90;69.30